« Back
NWS Peachtree City, Ga » Text Product » MCN Terminal Aerodrome Forecast


Printer-friendly Version
Current Version              Previous Versions:   1  2  3  4  5  6  7  8  9  

Terminal Aerodrome Forecast

591
FTUS42 KFFC 271004 AAA
TAFMCN
TAF AMD
KMCN 271004Z 2710/2806 29005KT P6SM SCT050
      TEMPO 2710/2712 BKN050
     FM271200 30006KT P6SM BKN050
     FM271600 31010KT P6SM SCT050
     FM271900 32012G22KT P6SM FEW060
     FM280100 32006KT P6SM SCT250=



USA.gov is the U.S. government's official web portal to all federal, state and local government web resources and services.